Time;durP1;ratioP1;P1;durP2;ratioP2;P2;SDS_P1;SDS_P2;PMS_P1;PMS_P2;Temp;Humidity;BMP_temperature;BMP_pressure;BME280_temperature;BME280_humidity;BME280_pressure;Samples;Min_cycle;Max_cycle;Signal;HPM_P1;HPM_P2
2023/03/02 00:02:00;;;;;;;;;;;;;;;;;;5044953;28;44006;-81
2023/03/02 00:04:26;;;;;;;;;;;;;;;;;;5028753;28;42966;-82
2023/03/02 00:06:52;;;;;;;;;;;;;;;;;;5043246;28;42950;-83
2023/03/02 00:09:18;;;;;;;;;;;;;;;;;;5035345;28;43080;-82
2023/03/02 00:11:44;;;;;;;;;;;;;;;;;;5045782;28;43314;-82
2023/03/02 00:14:10;;;;;;;;;;;;;;;;;;5044186;28;43081;-82
2023/03/02 00:16:36;;;;;;;;;;;;;;;;;;5034730;28;42935;-82
2023/03/02 00:19:02;;;;;;;;;;;;;;;;;;5038480;28;42875;-82
2023/03/02 00:21:28;;;;;;;;;;;;;;;;;;5030360;28;43522;-81
2023/03/02 00:23:54;;;;;;;;;;;;;;;;;;5024919;28;42956;-82
2023/03/02 00:26:20;;;;;;;;;;;;;;;;;;5022775;28;44506;-81
2023/03/02 00:28:45;;;;;;;;;;;;;;;;;;5030964;28;43121;-81
2023/03/02 00:31:11;;;;;;;;;;;;;;;;;;5025359;28;43201;-81
2023/03/02 00:33:37;;;;;;;;;;;;;;;;;;5024535;28;42945;-81
2023/03/02 00:36:03;;;;;;;;;;;;;;;;;;5024967;28;43366;-82
2023/03/02 00:38:29;;;;;;;;;;;;;;;;;;5024707;28;42785;-81
2023/03/02 00:40:55;;;;;;;;;;;;;;;;;;5030005;28;42917;-82
2023/03/02 00:43:26;;;;;;;;;;;;;;;;;;5026552;28;42977;-83
2023/03/02 00:45:51;;;;;;;;;;;;;;;;;;5024035;28;43786;-82
2023/03/02 00:48:17;;;;;;;;;;;;;;;;;;5025392;28;43071;-82
2023/03/02 00:50:43;;;;;;;;;;;;;;;;;;5039965;28;44586;-82
2023/03/02 00:53:09;;;;;;;;;;;;;;;;;;5024727;28;42959;-81
2023/03/02 00:55:35;;;;;;;;;;;;;;;;;;5024938;28;42942;-82
2023/03/02 00:58:01;;;;;;;;;;;;;;;;;;5024278;28;42983;-82
2023/03/02 01:00:27;;;;;;;;;;;;;;;;;;5023298;28;42834;-82
2023/03/02 01:02:53;;;;;;;;;;;;;;;;;;5042945;28;43244;-81
2023/03/02 01:05:19;;;;;;;;;;;;;;;;;;5044652;28;43718;-82
2023/03/02 01:07:45;;;;;;;;;;;;;;;;;;5043025;28;42934;-82
2023/03/02 01:10:11;;;;;;;;;;;;;;;;;;5044024;28;43558;-82
2023/03/02 01:12:37;;;;;;;;;;;;;;;;;;5042453;28;42788;-82
2023/03/02 01:15:03;;;;;;;;;;;;;;;;;;5043639;28;43303;-80
2023/03/02 01:17:28;;;;;;;;;;;;;;;;;;5041114;28;42887;-81
2023/03/02 01:19:55;;;;;;;;;;;;;;;;;;5032708;28;44785;-82
2023/03/02 01:22:21;;;;;;;;;;;;;;;;;;5035031;28;43062;-82
2023/03/02 01:24:47;;;;;;;;;;;;;;;;;;5042984;28;43630;-81
2023/03/02 01:27:13;;;;;;;;;;;;;;;;;;5032892;28;43030;-82
2023/03/02 01:29:39;;;;;;;;;;;;;;;;;;5034386;28;43534;-82
2023/03/02 01:32:05;;;;;;;;;;;;;;;;;;5037941;28;42975;-82
2023/03/02 01:34:31;;;;;;;;;;;;;;;;;;5029586;28;43290;-82
2023/03/02 01:36:57;;;;;;;;;;;;;;;;;;5034503;28;42987;-83
2023/03/02 01:39:23;;;;;;;;;;;;;;;;;;5037110;28;42893;-82
2023/03/02 01:41:49;;;;;;;;;;;;;;;;;;5025203;28;43144;-82
2023/03/02 01:44:15;;;;;;;;;;;;;;;;;;5024547;28;42889;-82
2023/03/02 01:46:41;;;;;;;;;;;;;;;;;;5036996;28;43217;-82
2023/03/02 01:49:07;;;;;;;;;;;;;;;;;;5044481;28;43065;-82
2023/03/02 01:51:32;;;;;;;;;;;;;;;;;;5044830;28;42816;-82
2023/03/02 01:53:58;;;;;;;;;;;;;;;;;;5042975;28;43545;-82
2023/03/02 01:56:24;;;;;;;;;;;;;;;;;;5021043;28;43104;-82
2023/03/02 01:58:50;;;;;;;;;;;;;;;;;;5023537;28;42837;-82
2023/03/02 02:01:16;;;;;;;;;;;;;;;;;;5039409;28;43119;-82
2023/03/02 02:03:42;;;;;;;;;;;;;;;;;;5024018;28;43490;-82
2023/03/02 02:06:08;;;;;;;;;;;;;;;;;;5024664;28;42961;-82
2023/03/02 02:08:34;;;;;;;;;;;;;;;;;;5037072;28;43729;-82
2023/03/02 02:11:00;;;;;;;;;;;;;;;;;;5044200;28;42809;-82
2023/03/02 02:13:26;;;;;;;;;;;;;;;;;;5044065;28;43723;-82
2023/03/02 02:15:52;;;;;;;;;;;;;;;;;;5044120;28;42777;-82
2023/03/02 02:18:18;;;;;;;;;;;;;;;;;;5043914;28;42938;-82
2023/03/02 02:20:44;;;;;;;;;;;;;;;;;;5043820;28;43299;-81
2023/03/02 02:23:10;;;;;;;;;;;;;;;;;;5042983;28;42920;-82
2023/03/02 02:25:35;;;;;;;;;;;;;;;;;;5044506;28;42946;-82
2023/03/02 02:28:01;;;;;;;;;;;;;;;;;;5046010;28;43011;-82
2023/03/02 02:30:28;;;;;;;;;;;;;;;;;;5047467;28;43061;-82
2023/03/02 02:32:54;;;;;;;;;;;;;;;;;;5043253;28;43479;-82
2023/03/02 02:35:20;;;;;;;;;;;;;;;;;;5047055;28;42959;-82
2023/03/02 02:37:46;;;;;;;;;;;;;;;;;;5047335;28;43566;-82
2023/03/02 02:40:11;;;;;;;;;;;;;;;;;;5047496;28;42805;-82
2023/03/02 02:42:38;;;;;;;;;;;;;;;;;;5045736;28;43895;-82
2023/03/02 02:45:03;;;;;;;;;;;;;;;;;;5046856;28;42914;-82
2023/03/02 02:47:29;;;;;;;;;;;;;;;;;;5046957;28;43736;-82
2023/03/02 02:49:55;;;;;;;;;;;;;;;;;;5047320;28;43004;-82
2023/03/02 02:52:21;;;;;;;;;;;;;;;;;;5047224;28;43205;-82
2023/03/02 02:54:47;;;;;;;;;;;;;;;;;;5046906;28;42924;-82
2023/03/02 02:57:16;;;;;;;;;;;;;;;;;;5047245;28;42956;-82
2023/03/02 02:59:42;;;;;;;;;;;;;;;;;;5047016;28;43074;-82
2023/03/02 03:02:08;;;;;;;;;;;;;;;;;;5046811;28;42914;-81
2023/03/02 03:04:34;;;;;;;;;;;;;;;;;;5046818;28;42793;-81
2023/03/02 03:07:00;;;;;;;;;;;;;;;;;;5046812;28;43720;-82
2023/03/02 03:09:26;;;;;;;;;;;;;;;;;;5046930;28;43376;-81
2023/03/02 03:11:52;;;;;;;;;;;;;;;;;;5046073;28;43528;-83
2023/03/02 03:14:18;;;;;;;;;;;;;;;;;;5045993;28;42927;-82
2023/03/02 03:16:44;;;;;;;;;;;;;;;;;;5045467;28;43822;-82
2023/03/02 03:19:10;;;;;;;;;;;;;;;;;;5046786;28;42937;-82
2023/03/02 03:21:36;;;;;;;;;;;;;;;;;;5044774;28;44660;-82
2023/03/02 03:24:02;;;;;;;;;;;;;;;;;;5046648;28;42770;-82
2023/03/02 03:26:27;;;;;;;;;;;;;;;;;;5046344;28;43910;-82
2023/03/02 03:28:56;;;;;;;;;;;;;;;;;;5046598;28;42931;-82
2023/03/02 03:31:21;;;;;;;;;;;;;;;;;;5046818;28;42933;-82
2023/03/02 03:33:48;;;;;;;;;;;;;;;;;;5046480;28;43137;-82
2023/03/02 03:36:13;;;;;;;;;;;;;;;;;;5046020;28;42990;-83
2023/03/02 03:38:39;;;;;;;;;;;;;;;;;;5045026;28;43047;-82
2023/03/02 03:41:05;;;;;;;;;;;;;;;;;;5045436;28;42840;-82
2023/03/02 03:43:31;;;;;;;;;;;;;;;;;;5046191;28;42985;-82
2023/03/02 03:45:57;;;;;;;;;;;;;;;;;;5045440;28;43465;-82
2023/03/02 03:48:23;;;;;;;;;;;;;;;;;;5046117;28;42934;-82
2023/03/02 03:50:49;;;;;;;;;;;;;;;;;;5045767;28;43597;-82
2023/03/02 03:53:15;;;;;;;;;;;;;;;;;;5045667;28;43250;-83
2023/03/02 03:55:41;;;;;;;;;;;;;;;;;;5043232;28;42888;-83
2023/03/02 03:58:06;;;;;;;;;;;;;;;;;;5040381;28;43001;-82
2023/03/02 04:00:32;;;;;;;;;;;;;;;;;;5037360;28;42977;-83
2023/03/02 04:02:58;;;;;;;;;;;;;;;;;;5039483;28;43230;-83
2023/03/02 04:05:24;;;;;;;;;;;;;;;;;;5044251;28;42995;-83
2023/03/02 04:07:50;;;;;;;;;;;;;;;;;;5034617;28;42938;-83
2023/03/02 04:10:16;;;;;;;;;;;;;;;;;;5034316;28;43533;-82
2023/03/02 04:12:42;;;;;;;;;;;;;;;;;;5034808;28;42794;-82
2023/03/02 04:15:08;;;;;;;;;;;;;;;;;;5041848;28;42895;-82
2023/03/02 04:17:33;;;;;;;;;;;;;;;;;;5030045;28;43041;-82
2023/03/02 04:19:59;;;;;;;;;;;;;;;;;;5037963;28;43485;-83
2023/03/02 04:22:25;;;;;;;;;;;;;;;;;;5042954;28;42915;-83
2023/03/02 04:24:51;;;;;;;;;;;;;;;;;;5037759;28;43208;-82
2023/03/02 04:27:17;;;;;;;;;;;;;;;;;;5028811;28;42981;-82
2023/03/02 04:29:43;;;;;;;;;;;;;;;;;;5036298;28;43097;-83
2023/03/02 04:32:09;;;;;;;;;;;;;;;;;;5034399;28;42963;-82
2023/03/02 04:34:35;;;;;;;;;;;;;;;;;;5023406;28;44386;-82
2023/03/02 04:37:01;;;;;;;;;;;;;;;;;;5035759;28;43069;-82
2023/03/02 04:39:27;;;;;;;;;;;;;;;;;;5032645;28;44057;-82
2023/03/02 04:41:53;;;;;;;;;;;;;;;;;;5034608;28;42924;-82
2023/03/02 04:44:19;;;;;;;;;;;;;;;;;;5031570;28;43658;-82
2023/03/02 04:46:44;;;;;;;;;;;;;;;;;;5025000;28;42845;-83
2023/03/02 04:49:10;;;;;;;;;;;;;;;;;;5036873;28;43529;-83
2023/03/02 04:51:36;;;;;;;;;;;;;;;;;;5043523;28;42954;-82
2023/03/02 04:54:02;;;;;;;;;;;;;;;;;;5043011;28;43746;-82
2023/03/02 04:56:28;;;;;;;;;;;;;;;;;;5035891;28;42959;-83
2023/03/02 04:58:54;;;;;;;;;;;;;;;;;;5032520;28;44418;-82
2023/03/02 05:01:20;;;;;;;;;;;;;;;;;;5038779;28;43029;-82
2023/03/02 05:03:45;;;;;;;;;;;;;;;;;;5035312;28;42914;-82
2023/03/02 05:06:11;;;;;;;;;;;;;;;;;;5034329;28;42913;-83
2023/03/02 05:08:37;;;;;;;;;;;;;;;;;;5031934;28;42931;-82
2023/03/02 05:11:03;;;;;;;;;;;;;;;;;;5044951;28;42915;-82
2023/03/02 05:13:29;;;;;;;;;;;;;;;;;;5043000;28;43465;-82
2023/03/02 05:15:56;;;;;;;;;;;;;;;;;;5044596;28;42997;-82
2023/03/02 05:18:22;;;;;;;;;;;;;;;;;;5041206;28;42936;-82
2023/03/02 05:20:49;;;;;;;;;;;;;;;;;;5037065;28;42943;-82
2023/03/02 05:23:22;;;;;;;;;;;;;;;;;;5030997;28;43566;-83
2023/03/02 05:25:48;;;;;;;;;;;;;;;;;;5043312;28;42927;-82
2023/03/02 05:28:14;;;;;;;;;;;;;;;;;;5040859;28;44322;-83
2023/03/02 05:30:40;;;;;;;;;;;;;;;;;;5037889;28;42978;-83
2023/03/02 05:33:07;;;;;;;;;;;;;;;;;;5032290;28;42990;-82
2023/03/02 05:35:33;;;;;;;;;;;;;;;;;;5024365;28;42999;-83
2023/03/02 05:37:59;;;;;;;;;;;;;;;;;;5026198;28;42987;-82
2023/03/02 05:40:25;;;;;;;;;;;;;;;;;;5038903;28;43066;-81
2023/03/02 05:42:51;;;;;;;;;;;;;;;;;;5034090;28;43860;-82
2023/03/02 05:45:17;;;;;;;;;;;;;;;;;;5033401;28;42955;-82
2023/03/02 05:47:43;;;;;;;;;;;;;;;;;;5038234;28;43066;-83
2023/03/02 05:50:09;;;;;;;;;;;;;;;;;;5041149;28;43193;-83
2023/03/02 05:52:35;;;;;;;;;;;;;;;;;;5036774;28;42997;-82
2023/03/02 05:55:00;;;;;;;;;;;;;;;;;;5026205;28;43736;-84
2023/03/02 05:57:26;;;;;;;;;;;;;;;;;;5023654;28;43496;-89
2023/03/02 05:59:52;;;;;;;;;;;;;;;;;;5041441;28;43258;-88
2023/03/02 06:02:18;;;;;;;;;;;;;;;;;;5033354;28;42930;-91
2023/03/02 06:04:44;;;;;;;;;;;;;;;;;;5046596;28;43272;-86
2023/03/02 06:07:10;;;;;;;;;;;;;;;;;;5047413;28;43458;-86
2023/03/02 06:09:36;;;;;;;;;;;;;;;;;;5025777;28;43298;-82
2023/03/02 06:12:02;;;;;;;;;;;;;;;;;;5031994;28;43250;-82
2023/03/02 06:14:28;;;;;;;;;;;;;;;;;;5037277;28;42983;-82
2023/03/02 06:16:54;;;;;;;;;;;;;;;;;;5038211;28;44310;-82
2023/03/02 06:19:19;;;;;;;;;;;;;;;;;;5034912;28;42948;-82
2023/03/02 06:21:45;;;;;;;;;;;;;;;;;;5033280;28;44003;-81
2023/03/02 06:24:11;;;;;;;;;;;;;;;;;;5035392;28;42986;-83
2023/03/02 06:26:37;;;;;;;;;;;;;;;;;;5044899;28;43296;-78
2023/03/02 06:29:04;;;;;;;;;;;;;;;;;;5045543;28;43016;-76
2023/03/02 06:31:30;;;;;;;;;;;;;;;;;;5044080;28;43475;-78
2023/03/02 06:33:56;;;;;;;;;;;;;;;;;;5036329;28;42979;-78
2023/03/02 06:36:22;;;;;;;;;;;;;;;;;;5036833;28;43090;-79
2023/03/02 06:38:48;;;;;;;;;;;;;;;;;;5034583;28;43514;-79
2023/03/02 06:41:14;;;;;;;;;;;;;;;;;;5036418;28;43194;-78
2023/03/02 06:43:40;;;;;;;;;;;;;;;;;;5036704;28;42877;-79
2023/03/02 06:46:06;;;;;;;;;;;;;;;;;;5039489;28;42987;-80
2023/03/02 06:48:31;;;;;;;;;;;;;;;;;;5054149;28;42880;-80
2023/03/02 06:50:57;;;;;;;;;;;;;;;;;;5033165;28;43005;-77
2023/03/02 06:53:23;;;;;;;;;;;;;;;;;;5034587;28;43782;-79
2023/03/02 06:55:49;;;;;;;;;;;;;;;;;;5025204;28;43534;-79
2023/03/02 06:58:15;;;;;;;;;;;;;;;;;;5026244;28;42918;-78
2023/03/02 07:00:41;;;;;;;;;;;;;;;;;;5026580;28;43530;-79
2023/03/02 07:03:07;;;;;;;;;;;;;;;;;;5035030;28;42932;-78
2023/03/02 07:05:34;;;;;;;;;;;;;;;;;;5042292;28;44234;-79
2023/03/02 07:08:00;;;;;;;;;;;;;;;;;;5044227;28;43247;-79
2023/03/02 07:10:26;;;;;;;;;;;;;;;;;;5044106;28;43810;-79
2023/03/02 07:12:52;;;;;;;;;;;;;;;;;;5046098;28;42841;-79
2023/03/02 07:15:18;;;;;;;;;;;;;;;;;;5041556;28;42975;-78
2023/03/02 07:17:44;;;;;;;;;;;;;;;;;;5026650;28;42988;-78
2023/03/02 07:20:10;;;;;;;;;;;;;;;;;;5026632;28;42732;-78
2023/03/02 07:22:36;;;;;;;;;;;;;;;;;;5026590;28;43065;-78
2023/03/02 07:25:02;;;;;;;;;;;;;;;;;;5026539;28;43365;-78
2023/03/02 07:27:27;;;;;;;;;;;;;;;;;;5026205;28;42896;-79
2023/03/02 07:29:53;;;;;;;;;;;;;;;;;;5026361;28;43068;-79
2023/03/02 07:32:19;;;;;;;;;;;;;;;;;;5026421;28;42956;-78
2023/03/02 07:34:45;;;;;;;;;;;;;;;;;;5026243;28;42998;-78
2023/03/02 07:37:11;;;;;;;;;;;;;;;;;;5026436;28;42932;-79
2023/03/02 07:39:37;;;;;;;;;;;;;;;;;;5026263;28;42988;-79
2023/03/02 07:42:03;;;;;;;;;;;;;;;;;;5026140;28;42892;-78
2023/03/02 07:44:29;;;;;;;;;;;;;;;;;;5025585;28;42910;-79
2023/03/02 07:46:55;;;;;;;;;;;;;;;;;;5025325;28;42905;-78
2023/03/02 07:49:21;;;;;;;;;;;;;;;;;;5025030;28;43896;-79
2023/03/02 07:51:46;;;;;;;;;;;;;;;;;;5025980;28;42891;-78
2023/03/02 07:54:12;;;;;;;;;;;;;;;;;;5025894;28;42948;-79
2023/03/02 07:56:38;;;;;;;;;;;;;;;;;;5025808;28;42998;-79
2023/03/02 07:59:04;;;;;;;;;;;;;;;;;;5025899;28;42990;-79
2023/03/02 08:01:30;;;;;;;;;;;;;;;;;;5025854;28;43043;-79
2023/03/02 08:03:56;;;;;;;;;;;;;;;;;;5025505;28;42952;-78
2023/03/02 08:06:22;;;;;;;;;;;;;;;;;;5025569;28;42933;-79
2023/03/02 08:08:48;;;;;;;;;;;;;;;;;;5025495;28;43601;-79
2023/03/02 08:11:14;;;;;;;;;;;;;;;;;;5025767;28;43233;-78
2023/03/02 08:13:39;;;;;;;;;;;;;;;;;;5024374;28;44663;-79
2023/03/02 08:16:05;;;;;;;;;;;;;;;;;;5025860;28;42853;-79
2023/03/02 08:18:31;;;;;;;;;;;;;;;;;;5025764;28;42979;-79
2023/03/02 08:20:57;;;;;;;;;;;;;;;;;;5025726;28;42936;-79
2023/03/02 08:23:23;;;;;;;;;;;;;;;;;;5025739;28;42986;-79
2023/03/02 08:25:49;;;;;;;;;;;;;;;;;;5025577;28;43059;-79
2023/03/02 08:28:15;;;;;;;;;;;;;;;;;;5025574;28;43014;-80
2023/03/02 08:30:41;;;;;;;;;;;;;;;;;;5025558;28;42800;-79
2023/03/02 08:33:06;;;;;;;;;;;;;;;;;;5025214;28;42863;-80
2023/03/02 08:35:32;;;;;;;;;;;;;;;;;;5025772;28;43005;-79
2023/03/02 08:37:58;;;;;;;;;;;;;;;;;;5025344;28;43518;-80
2023/03/02 08:40:24;;;;;;;;;;;;;;;;;;5025029;28;42823;-79
2023/03/02 08:42:55;;;;;;;;;;;;;;;;;;5025507;28;43550;-80
2023/03/02 08:45:21;;;;;;;;;;;;;;;;;;5025368;28;42879;-79
2023/03/02 08:47:47;;;;;;;;;;;;;;;;;;5025659;28;42968;-78
2023/03/02 08:50:13;;;;;;;;;;;;;;;;;;5025821;28;42920;-78
2023/03/02 08:52:39;;;;;;;;;;;;;;;;;;5025115;28;42906;-78
2023/03/02 08:55:05;;;;;;;;;;;;;;;;;;5025295;28;42875;-79
2023/03/02 08:57:31;;;;;;;;;;;;;;;;;;5024798;28;43469;-78
2023/03/02 08:59:57;;;;;;;;;;;;;;;;;;5025556;28;42800;-79
2023/03/02 09:02:22;;;;;;;;;;;;;;;;;;5025315;28;43427;-79
2023/03/02 09:04:48;;;;;;;;;;;;;;;;;;5023422;28;43125;-80
2023/03/02 09:07:16;;;;;;;;;;;;;;;;;;5024580;28;43920;-79
2023/03/02 09:09:42;;;;;;;;;;;;;;;;;;5022958;28;42927;-79
2023/03/02 09:12:07;;;;;;;;;;;;;;;;;;5025025;28;43451;-79
2023/03/02 09:14:33;;;;;;;;;;;;;;;;;;5024912;28;43026;-78
2023/03/02 09:16:59;;;;;;;;;;;;;;;;;;5024816;28;43625;-78
2023/03/02 09:19:25;;;;;;;;;;;;;;;;;;5024377;28;42975;-79
2023/03/02 09:21:51;;;;;;;;;;;;;;;;;;5023131;28;44477;-79
2023/03/02 09:24:17;;;;;;;;;;;;;;;;;;5025361;28;42872;-80
2023/03/02 09:26:43;;;;;;;;;;;;;;;;;;5025134;28;43032;-78
2023/03/02 09:29:09;;;;;;;;;;;;;;;;;;5025269;28;43015;-80
2023/03/02 09:31:35;;;;;;;;;;;;;;;;;;5024969;28;43661;-80
2023/03/02 09:34:00;;;;;;;;;;;;;;;;;;5024626;28;42930;-78
2023/03/02 09:36:26;;;;;;;;;;;;;;;;;;5026186;28;42953;-78
2023/03/02 09:38:52;;;;;;;;;;;;;;;;;;5028258;28;42989;-79
2023/03/02 09:41:18;;;;;;;;;;;;;;;;;;5027928;28;42903;-79
2023/03/02 09:43:44;;;;;;;;;;;;;;;;;;5028536;28;43060;-79
2023/03/02 09:46:10;;;;;;;;;;;;;;;;;;5028175;28;43402;-78
2023/03/02 09:48:36;;;;;;;;;;;;;;;;;;5027722;28;42984;-78
2023/03/02 09:51:02;;;;;;;;;;;;;;;;;;5027777;28;43573;-78
2023/03/02 09:53:28;;;;;;;;;;;;;;;;;;5027927;28;43201;-78
2023/03/02 09:55:54;;;;;;;;;;;;;;;;;;5028019;28;43398;-78
2023/03/02 09:58:19;;;;;;;;;;;;;;;;;;5027048;28;43024;-78
2023/03/02 10:00:45;;;;;;;;;;;;;;;;;;5027591;28;43478;-79
2023/03/02 10:03:11;;;;;;;;;;;;;;;;;;5027908;28;42968;-81
2023/03/02 10:05:37;;;;;;;;;;;;;;;;;;5027660;28;42982;-78
2023/03/02 10:08:03;;;;;;;;;;;;;;;;;;5027776;28;42778;-78
2023/03/02 10:10:29;;;;;;;;;;;;;;;;;;5027889;28;42794;-79
2023/03/02 10:12:55;;;;;;;;;;;;;;;;;;5027979;28;42742;-79
2023/03/02 10:15:21;;;;;;;;;;;;;;;;;;5026135;28;45129;-79
2023/03/02 10:17:50;;;;;;;;;;;;;;;;;;5027624;28;42948;-78
2023/03/02 10:20:16;;;;;;;;;;;;;;;;;;5027364;28;42801;-79
2023/03/02 10:22:42;;;;;;;;;;;;;;;;;;5027208;28;42958;-79
2023/03/02 10:25:08;;;;;;;;;;;;;;;;;;5027217;28;43692;-78
2023/03/02 10:27:34;;;;;;;;;;;;;;;;;;5027676;28;42997;-78
2023/03/02 10:30:00;;;;;;;;;;;;;;;;;;5027413;28;42928;-79
2023/03/02 10:32:26;;;;;;;;;;;;;;;;;;5027417;28;42987;-79
2023/03/02 10:34:52;;;;;;;;;;;;;;;;;;5027144;28;43610;-78
2023/03/02 10:37:17;;;;;;;;;;;;;;;;;;5026866;28;42901;-78
2023/03/02 10:39:43;;;;;;;;;;;;;;;;;;5026656;28;43523;-78
2023/03/02 10:42:09;;;;;;;;;;;;;;;;;;5027360;28;42919;-79
2023/03/02 10:44:38;;;;;;;;;;;;;;;;;;5025600;28;44611;-78
2023/03/02 10:47:04;;;;;;;;;;;;;;;;;;5027639;28;42898;-78
2023/03/02 10:49:30;;;;;;;;;;;;;;;;;;5026400;28;43315;-78
2023/03/02 10:51:56;;;;;;;;;;;;;;;;;;5027071;28;42996;-79
2023/03/02 10:54:22;;;;;;;;;;;;;;;;;;5026487;28;42864;-79
2023/03/02 10:56:48;;;;;;;;;;;;;;;;;;5026103;28;42962;-79
2023/03/02 10:59:14;;;;;;;;;;;;;;;;;;5026524;28;42997;-79
2023/03/02 11:01:40;;;;;;;;;;;;;;;;;;5026548;28;43040;-78
2023/03/02 11:04:05;;;;;;;;;;;;;;;;;;5026584;28;42816;-78
2023/03/02 11:06:32;;;;;;;;;;;;;;;;;;5026757;28;42828;-79
2023/03/02 11:08:58;;;;;;;;;;;;;;;;;;5026702;28;43078;-80
2023/03/02 11:11:24;;;;;;;;;;;;;;;;;;5026666;28;42919;-79
2023/03/02 11:13:50;;;;;;;;;;;;;;;;;;5026516;28;43179;-79
2023/03/02 11:16:16;;;;;;;;;;;;;;;;;;5026499;28;42952;-80
2023/03/02 11:18:42;;;;;;;;;;;;;;;;;;5026873;28;43831;-79
2023/03/02 11:21:07;;;;;;;;;;;;;;;;;;5026721;28;42808;-79
2023/03/02 11:23:33;;;;;;;;;;;;;;;;;;5026400;28;43493;-79
2023/03/02 11:25:59;;;;;;;;;;;;;;;;;;5026986;28;42953;-79
2023/03/02 11:28:26;;;;;;;;;;;;;;;;;;5026296;28;42785;-79
2023/03/02 11:30:52;;;;;;;;;;;;;;;;;;5026827;28;42861;-80
2023/03/02 11:33:18;;;;;;;;;;;;;;;;;;5026347;28;42895;-79
2023/03/02 11:35:44;;;;;;;;;;;;;;;;;;5026842;28;42856;-79
2023/03/02 11:38:10;;;;;;;;;;;;;;;;;;5024936;28;44822;-80
2023/03/02 11:40:36;;;;;;;;;;;;;;;;;;5026566;28;42959;-80
2023/03/02 11:43:03;;;;;;;;;;;;;;;;;;5026205;28;43796;-79
2023/03/02 11:45:29;;;;;;;;;;;;;;;;;;5024692;28;43070;-80
2023/03/02 11:47:55;;;;;;;;;;;;;;;;;;5024754;28;44692;-79
2023/03/02 11:50:21;;;;;;;;;;;;;;;;;;5026423;28;42932;-79
2023/03/02 11:52:47;;;;;;;;;;;;;;;;;;5026373;28;43108;-79
2023/03/02 11:55:13;;;;;;;;;;;;;;;;;;5026000;28;42754;-79
2023/03/02 11:57:39;;;;;;;;;;;;;;;;;;5026060;28;42916;-79
2023/03/02 12:00:05;;;;;;;;;;;;;;;;;;5025015;28;42916;-79
2023/03/02 12:02:30;;;;;;;;;;;;;;;;;;5026939;28;42904;-80
2023/03/02 12:04:56;;;;;;;;;;;;;;;;;;5027798;28;43041;-79
2023/03/02 12:07:22;;;;;;;;;;;;;;;;;;5026531;28;43486;-79
2023/03/02 12:09:48;;;;;;;;;;;;;;;;;;5034359;28;42929;-78
2023/03/02 12:12:14;;;;;;;;;;;;;;;;;;5045076;28;43031;-79
2023/03/02 12:14:41;;;;;;;;;;;;;;;;;;5022887;28;43009;-79
2023/03/02 12:17:07;;;;;;;;;;;;;;;;;;5024980;28;42844;-79
2023/03/02 12:19:33;;;;;;;;;;;;;;;;;;5026006;28;42904;-78
2023/03/02 12:22:11;;;;;;;;;;;;;;;;;;5142249;27;44638;-79
2023/03/02 12:24:37;;;;;;;;;;;;;;;;;;5141401;27;44558;-78
2023/03/02 12:27:03;;;;;;;;;;;;;;;;;;5143722;27;42830;-79
2023/03/02 12:29:28;;;;;;;;;;;;;;;;;;5143251;27;43485;-79
2023/03/02 12:31:54;;;;;;;;;;;;;;;;;;5143250;27;43025;-79
2023/03/02 12:34:20;;;;;;;;;;;;;;;;;;5142895;27;43806;-79
2023/03/02 12:36:46;;;;;;;;;;;;;;;;;;5143867;27;42936;-79
2023/03/02 12:39:12;;;;;;;;;;;;;;;;;;5142182;27;42932;-80
2023/03/02 12:41:38;;;;;;;;;;;;;;;;;;5142098;27;42958;-80
2023/03/02 12:44:04;;;;;;;;;;;;;;;;;;5144146;27;42920;-80
2023/03/02 12:46:30;;;;;;;;;;;;;;;;;;5141274;27;43266;-79
2023/03/02 12:48:56;;;;;;;;;;;;;;;;;;5143102;27;43453;-79
2023/03/02 12:51:22;;;;;;;;;;;;;;;;;;5143779;27;43051;-80
2023/03/02 12:53:48;;;;;;;;;;;;;;;;;;5143529;27;42858;-79
2023/03/02 12:56:14;;;;;;;;;;;;;;;;;;5143125;27;42957;-80
2023/03/02 12:58:40;;;;;;;;;;;;;;;;;;5143206;27;42869;-79
2023/03/02 13:01:06;;;;;;;;;;;;;;;;;;5143784;27;42948;-80
2023/03/02 13:03:32;;;;;;;;;;;;;;;;;;5143044;27;43018;-79
2023/03/02 13:05:57;;;;;;;;;;;;;;;;;;5143118;27;42966;-79
2023/03/02 13:08:24;;;;;;;;;;;;;;;;;;5142229;27;43486;-79
2023/03/02 13:10:50;;;;;;;;;;;;;;;;;;5143477;27;42978;-80
2023/03/02 13:13:15;;;;;;;;;;;;;;;;;;5142783;27;42959;-79
2023/03/02 13:15:41;;;;;;;;;;;;;;;;;;5143292;27;43100;-79
2023/03/02 13:18:07;;;;;;;;;;;;;;;;;;5143123;27;43011;-79
2023/03/02 13:20:33;;;;;;;;;;;;;;;;;;5142369;27;43082;-79
2023/03/02 13:22:59;;;;;;;;;;;;;;;;;;5143066;27;42830;-79
2023/03/02 13:25:25;;;;;;;;;;;;;;;;;;5141508;27;43140;-79
2023/03/02 13:27:51;;;;;;;;;;;;;;;;;;5143085;27;43456;-79
2023/03/02 13:30:17;;;;;;;;;;;;;;;;;;5142728;27;42930;-79
2023/03/02 13:32:43;;;;;;;;;;;;;;;;;;5132887;27;42864;-79
2023/03/02 13:35:09;;;;;;;;;;;;;;;;;;5129424;27;42863;-79
2023/03/02 13:37:37;;;;;;;;;;;;;;;;;;5127046;27;43661;-79
2023/03/02 13:40:03;;;;;;;;;;;;;;;;;;5129338;27;42986;-79
2023/03/02 13:42:32;;;;;;;;;;;;;;;;;;5128717;27;43525;-79
2023/03/02 13:44:58;;;;;;;;;;;;;;;;;;5132172;27;43015;-79
2023/03/02 13:47:24;;;;;;;;;;;;;;;;;;5149906;27;42885;-79
2023/03/02 13:49:50;;;;;;;;;;;;;;;;;;5132926;27;42914;-79
2023/03/02 13:52:15;;;;;;;;;;;;;;;;;;5128687;27;43484;-79
2023/03/02 13:54:41;;;;;;;;;;;;;;;;;;5128150;27;43034;-79
2023/03/02 13:57:07;;;;;;;;;;;;;;;;;;5128445;27;42814;-79
2023/03/02 13:59:35;;;;;;;;;;;;;;;;;;5127653;27;43086;-80
2023/03/02 14:02:01;;;;;;;;;;;;;;;;;;5127912;27;42900;-79
2023/03/02 14:04:26;;;;;;;;;;;;;;;;;;5128424;27;42860;-80
2023/03/02 14:06:52;;;;;;;;;;;;;;;;;;5127711;27;42938;-80
2023/03/02 14:09:18;;;;;;;;;;;;;;;;;;5126417;27;42943;-82
2023/03/02 14:11:44;;;;;;;;;;;;;;;;;;5128013;27;43660;-79
2023/03/02 14:14:10;;;;;;;;;;;;;;;;;;5128708;27;43095;-79
2023/03/02 14:16:36;;;;;;;;;;;;;;;;;;5127093;27;45279;-80
2023/03/02 14:19:02;;;;;;;;;;;;;;;;;;5126668;27;43026;-80
2023/03/02 14:21:28;;;;;;;;;;;;;;;;;;5125954;27;45870;-80
2023/03/02 14:23:54;;;;;;;;;;;;;;;;;;5126511;27;42960;-80
2023/03/02 14:26:20;;;;;;;;;;;;;;;;;;5125767;27;44099;-80
2023/03/02 14:28:46;;;;;;;;;;;;;;;;;;5124835;27;43009;-79
2023/03/02 14:31:12;;;;;;;;;;;;;;;;;;5124169;27;43074;-79
2023/03/02 14:33:38;;;;;;;;;;;;;;;;;;5126235;27;42942;-79
2023/03/02 14:36:05;;;;;;;;;;;;;;;;;;5126668;27;43014;-79
2023/03/02 14:38:30;;;;;;;;;;;;;;;;;;5126447;27;42980;-79
2023/03/02 14:40:56;;;;;;;;;;;;;;;;;;5126715;27;42942;-79
2023/03/02 14:43:24;;;;;;;;;;;;;;;;;;5126891;27;42952;-79
2023/03/02 14:45:50;;;;;;;;;;;;;;;;;;5125884;27;44536;-79
2023/03/02 14:48:16;;;;;;;;;;;;;;;;;;5126790;27;42912;-80
2023/03/02 14:50:42;;;;;;;;;;;;;;;;;;5125492;27;43784;-80
2023/03/02 14:53:08;;;;;;;;;;;;;;;;;;5127151;27;43158;-78
2023/03/02 14:55:35;;;;;;;;;;;;;;;;;;5125924;27;43529;-81
2023/03/02 14:58:01;;;;;;;;;;;;;;;;;;5125207;27;42924;-80
2023/03/02 15:00:27;;;;;;;;;;;;;;;;;;5122443;27;44085;-78
2023/03/02 15:02:53;;;;;;;;;;;;;;;;;;5125303;27;43205;-79
2023/03/02 15:05:19;;;;;;;;;;;;;;;;;;5125922;27;43355;-79
2023/03/02 15:07:45;;;;;;;;;;;;;;;;;;5125970;27;42998;-83
2023/03/02 15:10:11;;;;;;;;;;;;;;;;;;5125704;27;43894;-83
2023/03/02 15:12:37;;;;;;;;;;;;;;;;;;5126206;27;42940;-81
2023/03/02 15:15:03;;;;;;;;;;;;;;;;;;5126145;27;42954;-85
2023/03/02 15:17:28;;;;;;;;;;;;;;;;;;5124717;27;43242;-81
2023/03/02 15:19:54;;;;;;;;;;;;;;;;;;5125110;27;43073;-83
2023/03/02 15:22:33;;;;;;;;;;;;;;;;;;5123801;27;43008;-83
2023/03/02 15:25:04;;;;;;;;;;;;;;;;;;5115209;27;42892;-84
2023/03/02 15:27:33;;;;;;;;;;;;;;;;;;5126717;27;43030;-78
2023/03/02 15:29:59;;;;;;;;;;;;;;;;;;5126067;27;43066;-80
2023/03/02 15:32:25;;;;;;;;;;;;;;;;;;5125805;27;42915;-81
2023/03/02 15:34:51;;;;;;;;;;;;;;;;;;5126009;27;43647;-80
2023/03/02 15:37:17;;;;;;;;;;;;;;;;;;5126122;27;42970;-80
2023/03/02 15:39:43;;;;;;;;;;;;;;;;;;5124871;27;43799;-81
2023/03/02 15:42:09;;;;;;;;;;;;;;;;;;5126263;27;42964;-80
2023/03/02 15:44:35;;;;;;;;;;;;;;;;;;5125127;27;44328;-80
2023/03/02 15:47:01;;;;;;;;;;;;;;;;;;5125060;27;43058;-79
2023/03/02 15:49:28;;;;;;;;;;;;;;;;;;5124644;27;43464;-82
2023/03/02 15:51:54;;;;;;;;;;;;;;;;;;5124404;27;43004;-79
2023/03/02 15:54:19;;;;;;;;;;;;;;;;;;5125966;27;42955;-81
2023/03/02 15:56:50;;;;;;;;;;;;;;;;;;5125211;27;43164;-82
2023/03/02 15:59:16;;;;;;;;;;;;;;;;;;5125899;27;43078;-78
2023/03/02 16:01:42;;;;;;;;;;;;;;;;;;5126611;27;42981;-79
2023/03/02 16:04:08;;;;;;;;;;;;;;;;;;5126251;27;43720;-80
2023/03/02 16:06:34;;;;;;;;;;;;;;;;;;5126627;27;42762;-79
2023/03/02 16:09:00;;;;;;;;;;;;;;;;;;5124893;27;43074;-81
2023/03/02 16:11:26;;;;;;;;;;;;;;;;;;5125756;27;42973;-78
2023/03/02 16:13:52;;;;;;;;;;;;;;;;;;5125641;27;43426;-79
2023/03/02 16:16:18;;;;;;;;;;;;;;;;;;5126057;27;42939;-79
2023/03/02 16:18:44;;;;;;;;;;;;;;;;;;5125792;27;42980;-80
2023/03/02 16:21:10;;;;;;;;;;;;;;;;;;5125697;27;42947;-78
2023/03/02 16:23:36;;;;;;;;;;;;;;;;;;5125911;27;42868;-79
2023/03/02 16:26:01;;;;;;;;;;;;;;;;;;5125714;27;43073;-77
2023/03/02 16:28:27;;;;;;;;;;;;;;;;;;5126356;27;42919;-78
2023/03/02 16:30:53;;;;;;;;;;;;;;;;;;5125929;27;42913;-80
2023/03/02 16:33:19;;;;;;;;;;;;;;;;;;5126280;27;43662;-78
2023/03/02 16:35:45;;;;;;;;;;;;;;;;;;5125059;27;43000;-79
2023/03/02 16:38:11;;;;;;;;;;;;;;;;;;5126191;27;43492;-79